createdAt,value
2022-08-09T00:00:04.434Z,6.65
2022-08-09T00:02:34.406Z,6.25
2022-08-09T00:06:15.468Z,5.00
2022-08-09T00:07:52.305Z,7.18
2022-08-09T00:10:24.534Z,5.50
2022-08-09T00:12:53.153Z,6.65
2022-08-09T00:15:35.603Z,6.60
2022-08-09T00:18:11.844Z,9.82
2022-08-09T00:20:42.260Z,5.13
2022-08-09T00:23:55.965Z,5.80
2022-08-09T00:26:07.287Z,5.75
2022-08-09T00:28:35.103Z,4.90
2022-08-09T00:31:30.682Z,7.07
2022-08-09T00:33:52.272Z,6.72
2022-08-09T00:36:19.904Z,5.75
2022-08-09T00:38:50.821Z,9.98
2022-08-09T00:44:11.381Z,8.20
2022-08-09T00:44:26.675Z,6.18
2022-08-09T00:47:01.739Z,7.10
2022-08-09T00:49:32.954Z,11.75
2022-08-09T00:52:02.043Z,8.65
2022-08-09T00:54:36.017Z,8.27
2022-08-09T00:57:08.863Z,9.88
2022-08-09T00:59:41.230Z,7.00
2022-08-09T01:02:14.798Z,7.55
2022-08-09T01:04:48.011Z,6.13
2022-08-09T01:07:21.064Z,5.88
2022-08-09T01:10:10.709Z,7.55
2022-08-09T01:12:41.713Z,6.28
2022-08-09T01:15:17.523Z,6.72
2022-08-09T01:17:47.040Z,8.23
2022-08-09T01:20:18.452Z,6.07
2022-08-09T01:23:04.334Z,7.53
2022-08-09T01:25:57.674Z,6.32
2022-08-09T01:28:26.919Z,12.43
2022-08-09T01:30:58.168Z,8.10
2022-08-09T01:33:27.882Z,6.25
2022-08-09T01:35:59.231Z,10.25
2022-08-09T01:41:05.465Z,8.82
2022-08-09T01:43:51.279Z,8.13
2022-08-09T01:46:25.083Z,10.32
2022-08-09T01:48:54.696Z,7.20
2022-08-09T01:51:23.204Z,9.65
2022-08-09T01:53:58.105Z,8.38
2022-08-09T01:56:27.310Z,9.25
2022-08-09T01:58:56.341Z,8.75
2022-08-09T02:01:30.621Z,8.30
2022-08-09T02:04:13.665Z,9.20
2022-08-09T02:07:02.544Z,6.93
2022-08-09T02:09:41.983Z,11.13
2022-08-09T02:12:18.090Z,9.93
2022-08-09T02:14:51.967Z,9.15
2022-08-09T02:18:01.444Z,9.07
2022-08-09T02:20:12.178Z,9.32
2022-08-09T02:22:46.559Z,8.77
2022-08-09T02:25:24.747Z,9.73
2022-08-09T02:28:03.755Z,10.43
2022-08-09T02:30:34.519Z,11.07
2022-08-09T02:33:02.956Z,11.43
2022-08-09T02:36:03.386Z,10.48
2022-08-09T02:38:28.903Z,11.35
2022-08-09T02:41:00.067Z,12.63
2022-08-09T02:43:28.943Z,11.70
2022-08-09T02:45:59.009Z,11.35
2022-08-09T02:48:31.101Z,10.57
2022-08-09T02:51:02.490Z,13.82
2022-08-09T02:53:32.472Z,15.20
2022-08-09T02:56:03.284Z,13.60
2022-08-09T02:58:37.614Z,9.75
2022-08-09T03:01:10.879Z,12.40
2022-08-09T03:04:18.425Z,12.88
2022-08-09T03:06:29.023Z,13.25
2022-08-09T03:08:57.263Z,14.52
2022-08-09T03:11:29.883Z,15.52
2022-08-09T03:14:13.731Z,15.30
2022-08-09T03:16:48.122Z,14.88
2022-08-09T03:19:58.853Z,18.15
2022-08-09T03:22:05.550Z,14.60
2022-08-09T03:24:42.696Z,16.00
2022-08-09T03:27:21.480Z,13.63
2022-08-09T03:29:57.021Z,13.18
2022-08-09T03:32:28.612Z,14.00
2022-08-09T03:34:56.184Z,12.73
2022-08-09T03:37:56.662Z,19.55
2022-08-09T03:40:13.654Z,16.08
2022-08-09T03:42:45.439Z,12.65
2022-08-09T03:45:14.183Z,14.98
2022-08-09T03:47:46.506Z,16.23
2022-08-09T03:50:27.630Z,15.65
2022-08-09T03:53:00.672Z,16.00
2022-08-09T03:58:14.885Z,13.88
2022-08-09T04:00:45.217Z,15.82
2022-08-09T04:03:24.890Z,16.75
2022-08-09T04:06:04.665Z,14.23
2022-08-09T04:08:32.415Z,17.25
2022-08-09T04:11:01.377Z,14.57
2022-08-09T04:14:36.723Z,18.45
2022-08-09T04:16:20.964Z,17.80
2022-08-09T04:18:51.144Z,16.73
2022-08-09T04:21:18.911Z,18.92
2022-08-09T04:23:53.808Z,17.17
2022-08-09T04:26:23.419Z,17.70
2022-08-09T04:28:53.120Z,19.30
2022-08-09T04:31:22.516Z,22.95
2022-08-09T04:36:28.086Z,22.90
2022-08-09T04:38:56.432Z,20.75
2022-08-09T04:41:32.462Z,19.83
2022-08-09T04:44:07.326Z,20.95
2022-08-09T04:46:59.580Z,20.55
2022-08-09T04:49:40.862Z,20.55
2022-08-09T04:52:18.525Z,19.08
2022-08-09T04:54:53.736Z,21.20
2022-08-09T04:57:24.204Z,22.38
2022-08-09T05:02:19.893Z,21.50
2022-08-09T05:04:47.740Z,20.67
2022-08-09T05:07:23.917Z,20.30
2022-08-09T05:09:51.742Z,25.15
2022-08-09T05:12:22.647Z,21.05
2022-08-09T05:14:50.265Z,20.00
2022-08-09T05:18:37.484Z,17.48
2022-08-09T05:20:05.954Z,20.80
2022-08-09T05:23:50.526Z,20.20
2022-08-09T05:25:22.678Z,22.42
2022-08-09T05:27:50.739Z,20.35
2022-08-09T05:30:19.423Z,22.38
2022-08-09T05:32:50.679Z,17.15
2022-08-09T05:35:18.288Z,23.33
2022-08-09T05:37:51.012Z,15.85
2022-08-09T05:40:18.939Z,20.65
2022-08-09T05:42:47.267Z,18.42
2022-08-09T05:45:14.958Z,16.02
2022-08-09T05:47:52.448Z,16.52
2022-08-09T05:50:36.178Z,15.45
2022-08-09T05:53:31.648Z,14.90
2022-08-09T05:56:00.226Z,15.27
2022-08-09T05:58:29.220Z,15.52
2022-08-09T06:00:56.965Z,14.65
2022-08-09T06:03:25.771Z,16.95
2022-08-09T06:06:11.314Z,12.15
2022-08-09T06:08:40.423Z,13.65
2022-08-09T06:11:17.515Z,12.73
2022-08-09T06:13:47.423Z,15.48
2022-08-09T06:16:15.156Z,12.30
2022-08-09T06:18:43.838Z,14.43
2022-08-09T06:21:11.332Z,14.77
2022-08-09T06:23:55.541Z,13.32
2022-08-09T06:26:28.183Z,12.27
2022-08-09T06:29:00.425Z,10.90
2022-08-09T06:31:31.579Z,9.50
2022-08-09T06:34:07.435Z,10.48
2022-08-09T06:36:35.126Z,9.23
2022-08-09T06:39:08.975Z,11.10
2022-08-09T06:42:07.903Z,8.32
2022-08-09T06:44:24.615Z,10.00
2022-08-09T06:46:55.420Z,6.57
2022-08-09T06:49:44.738Z,7.20
2022-08-09T06:52:12.070Z,6.65
2022-08-09T06:54:44.564Z,9.45
2022-08-09T06:57:13.379Z,8.48
2022-08-09T07:00:54.686Z,10.60
2022-08-09T07:02:29.437Z,6.45
2022-08-09T07:04:59.769Z,6.35
2022-08-09T07:07:58.825Z,6.95
2022-08-09T07:10:29.451Z,6.00
2022-08-09T07:12:59.606Z,5.68
2022-08-09T07:16:35.132Z,4.50
2022-08-09T07:18:15.005Z,7.53
2022-08-09T07:20:43.772Z,5.78
2022-08-09T07:23:18.098Z,5.85
2022-08-09T07:25:52.254Z,4.78
2022-08-09T07:28:29.723Z,6.93
2022-08-09T07:30:57.210Z,6.45
2022-08-09T07:33:24.639Z,7.32
2022-08-09T07:35:54.244Z,5.85
2022-08-09T07:38:23.470Z,7.18
2022-08-09T07:41:00.872Z,4.63
2022-08-09T07:43:49.647Z,7.00
2022-08-09T07:46:19.264Z,7.57
2022-08-09T07:48:58.883Z,5.97
2022-08-09T07:52:03.122Z,8.80
2022-08-09T07:54:15.293Z,6.10
2022-08-09T07:56:49.259Z,3.67
2022-08-09T07:59:25.367Z,3.17
2022-08-09T08:02:01.677Z,4.47
2022-08-09T08:04:31.626Z,4.10
2022-08-09T08:07:14.853Z,3.78
2022-08-09T08:09:53.552Z,3.88
2022-08-09T08:12:29.179Z,2.75
2022-08-09T08:14:57.264Z,4.43
2022-08-09T08:17:52.479Z,3.60
2022-08-09T08:20:13.640Z,2.67
2022-08-09T08:22:41.411Z,5.13
2022-08-09T08:25:13.507Z,5.65
2022-08-09T08:27:43.349Z,3.95
2022-08-09T08:30:11.489Z,3.92
2022-08-09T08:32:52.313Z,1.95
2022-08-09T08:35:22.286Z,1.98
2022-08-09T08:37:59.587Z,2.55
2022-08-09T08:40:32.815Z,3.08
2022-08-09T08:43:08.689Z,2.35
2022-08-09T08:45:51.451Z,3.05
2022-08-09T08:48:21.026Z,1.45
2022-08-09T08:50:49.289Z,2.53
2022-08-09T08:53:22.041Z,2.17
2022-08-09T08:55:52.608Z,2.83
2022-08-09T08:58:27.166Z,1.75
2022-08-09T09:00:57.098Z,3.72
2022-08-09T09:03:37.455Z,3.25
2022-08-09T09:06:07.150Z,3.08
2022-08-09T09:08:42.235Z,2.20
2022-08-09T09:11:17.650Z,2.15
2022-08-09T09:13:56.328Z,1.50
2022-08-09T09:16:30.195Z,1.30
2022-08-09T09:19:36.811Z,1.45
2022-08-09T09:22:00.624Z,1.50
2022-08-09T09:24:30.569Z,1.83
2022-08-09T09:27:01.622Z,0.73
2022-08-09T09:29:46.002Z,2.25
2022-08-09T09:32:32.435Z,1.80
2022-08-09T09:35:08.955Z,3.30
2022-08-09T09:37:37.734Z,1.00
2022-08-09T09:40:09.058Z,2.42
2022-08-09T09:42:36.901Z,2.17
2022-08-09T09:45:08.270Z,2.50
2022-08-09T09:47:47.921Z,1.63
2022-08-09T09:50:49.317Z,1.70
2022-08-09T09:53:20.141Z,1.80
2022-08-09T09:55:57.677Z,3.78
2022-08-09T09:58:45.038Z,4.50
2022-08-09T10:01:31.544Z,2.65
2022-08-09T10:04:09.755Z,1.17
2022-08-09T10:06:42.828Z,1.80
2022-08-09T10:09:22.564Z,1.65
2022-08-09T10:12:04.536Z,1.27
2022-08-09T10:14:48.103Z,1.92
2022-08-09T10:17:50.681Z,1.20
2022-08-09T10:20:14.899Z,1.20
2022-08-09T10:22:43.093Z,1.30
2022-08-09T10:25:14.719Z,1.70
2022-08-09T10:27:57.228Z,3.30
2022-08-09T10:34:05.001Z,1.48
2022-08-09T10:36:03.072Z,2.45
2022-08-09T10:38:55.439Z,1.48
2022-08-09T10:41:20.545Z,3.17
2022-08-09T10:44:01.026Z,1.25
2022-08-09T10:46:55.541Z,1.23
2022-08-09T10:49:51.339Z,1.98
2022-08-09T10:52:28.790Z,1.98
2022-08-09T10:54:56.334Z,2.63
2022-08-09T10:57:36.259Z,1.33
2022-08-09T11:00:28.253Z,3.55
2022-08-09T11:03:11.986Z,0.93
2022-08-09T11:06:04.981Z,1.00
2022-08-09T11:08:47.489Z,1.73
2022-08-09T11:11:16.153Z,2.60
2022-08-09T11:13:50.742Z,1.45
2022-08-09T11:16:36.101Z,0.80
2022-08-09T11:19:09.852Z,3.30
2022-08-09T11:21:57.166Z,0.60
2022-08-09T11:24:47.968Z,1.98
2022-08-09T11:28:05.589Z,4.68
2022-08-09T11:30:31.915Z,0.95
2022-08-09T11:33:03.740Z,1.88
2022-08-09T11:38:17.551Z,1.30
2022-08-09T11:40:46.509Z,0.73
2022-08-09T11:43:15.819Z,1.20
2022-08-09T11:45:54.001Z,1.25
2022-08-09T11:48:25.942Z,0.57
2022-08-09T11:51:38.215Z,0.68
2022-08-09T11:54:12.944Z,1.02
2022-08-09T11:56:48.044Z,1.20
2022-08-09T11:59:30.262Z,1.02
2022-08-09T12:02:17.450Z,2.38
2022-08-09T12:04:57.961Z,1.88
2022-08-09T12:07:41.330Z,1.45
2022-08-09T12:10:14.459Z,0.93
2022-08-09T12:13:03.737Z,0.60
2022-08-09T12:15:48.726Z,0.80
2022-08-09T12:18:26.023Z,1.02
2022-08-09T12:20:59.315Z,1.35
2022-08-09T12:23:58.799Z,1.13
2022-08-09T12:26:19.750Z,1.95
2022-08-09T12:29:11.902Z,0.85
2022-08-09T12:31:58.897Z,2.03
2022-08-09T12:34:34.125Z,1.00
2022-08-09T12:37:21.296Z,0.73
2022-08-09T12:39:59.573Z,1.35
2022-08-09T12:42:28.665Z,0.90
2022-08-09T12:44:59.375Z,1.33
2022-08-09T12:47:37.079Z,3.53
2022-08-09T12:50:19.987Z,0.40
2022-08-09T12:53:09.191Z,0.68
2022-08-09T12:56:15.072Z,0.90
2022-08-09T12:58:28.601Z,2.72
2022-08-09T13:00:58.150Z,0.98
2022-08-09T13:03:53.825Z,2.65
2022-08-09T13:06:25.267Z,1.58
2022-08-09T13:09:06.164Z,2.90
2022-08-09T13:11:34.527Z,1.05
2022-08-09T13:14:41.500Z,3.70
2022-08-09T13:16:58.984Z,1.73
2022-08-09T13:20:08.396Z,2.05
2022-08-09T13:22:36.416Z,2.47
2022-08-09T13:25:07.975Z,1.95
2022-08-09T13:27:54.671Z,1.35
2022-08-09T13:30:50.763Z,3.13
2022-08-09T13:33:17.183Z,1.50
2022-08-09T13:36:37.585Z,3.83
2022-08-09T13:38:55.996Z,1.27
2022-08-09T13:41:58.410Z,0.90
2022-08-09T13:44:13.806Z,0.70
2022-08-09T13:47:29.586Z,0.65
2022-08-09T13:49:39.717Z,1.48
2022-08-09T13:52:21.274Z,0.60
2022-08-09T13:54:59.849Z,1.65
2022-08-09T13:57:37.541Z,1.20
2022-08-09T14:00:10.004Z,0.70
2022-08-09T14:02:42.934Z,1.80
2022-08-09T14:05:59.362Z,1.80
2022-08-09T14:08:13.689Z,0.60
2022-08-09T14:10:49.043Z,0.90
2022-08-09T14:13:27.658Z,0.90
2022-08-09T14:16:10.902Z,0.60
2022-08-09T14:18:38.931Z,2.15
2022-08-09T14:21:17.198Z,1.58
2022-08-09T14:23:55.547Z,1.33
2022-08-09T14:26:25.537Z,0.82
2022-08-09T14:29:00.490Z,2.22
2022-08-09T14:31:50.034Z,1.25
2022-08-09T14:34:17.468Z,1.27
2022-08-09T14:36:56.398Z,0.82
2022-08-09T14:39:39.839Z,1.17
2022-08-09T14:42:08.529Z,1.27
2022-08-09T14:44:59.512Z,1.00
2022-08-09T14:47:42.964Z,0.93
2022-08-09T14:50:11.135Z,2.80
2022-08-09T14:52:40.036Z,3.13
2022-08-09T14:55:08.663Z,1.58
2022-08-09T14:57:43.543Z,1.88
2022-08-09T15:00:14.757Z,0.95
2022-08-09T15:02:42.475Z,1.17
2022-08-09T15:05:16.103Z,3.03
2022-08-09T15:07:54.741Z,1.75
2022-08-09T15:10:24.923Z,0.60
2022-08-09T15:12:52.953Z,1.98
2022-08-09T15:15:21.054Z,1.17
2022-08-09T15:17:52.345Z,0.40
2022-08-09T15:21:57.883Z,1.38
2022-08-09T15:24:01.905Z,1.98
2022-08-09T15:25:58.120Z,3.10
2022-08-09T15:28:27.690Z,2.90
2022-08-09T15:34:17.753Z,2.13
2022-08-09T15:36:28.866Z,0.75
2022-08-09T15:38:58.906Z,1.13
2022-08-09T15:43:59.653Z,1.33
2022-08-09T15:46:32.108Z,2.45
2022-08-09T15:49:21.859Z,1.08
2022-08-09T15:52:04.602Z,2.53
2022-08-09T15:54:44.292Z,2.72
2022-08-09T15:57:33.803Z,1.50
2022-08-09T16:00:04.952Z,2.97
2022-08-09T16:02:32.397Z,1.27
2022-08-09T16:05:04.187Z,0.68
2022-08-09T16:07:39.558Z,1.77
2022-08-09T16:10:38.631Z,1.33
2022-08-09T16:13:02.625Z,2.22
2022-08-09T16:16:10.004Z,1.23
2022-08-09T16:18:18.068Z,1.38
2022-08-09T16:20:46.611Z,1.45
2022-08-09T16:23:14.759Z,1.25
2022-08-09T16:25:49.601Z,2.25
2022-08-09T16:28:17.519Z,1.42
2022-08-09T16:30:58.540Z,2.38
2022-08-09T16:33:26.984Z,4.82
2022-08-09T16:35:58.385Z,0.93
2022-08-09T16:38:27.462Z,1.60
2022-08-09T16:40:56.450Z,2.42
2022-08-09T16:43:26.693Z,0.70
2022-08-09T16:45:55.044Z,1.17
2022-08-09T16:48:41.612Z,1.65
2022-08-09T16:51:13.938Z,2.65
2022-08-09T16:54:02.294Z,0.80
2022-08-09T16:56:31.355Z,0.98
2022-08-09T16:58:59.227Z,0.82
2022-08-09T17:01:28.774Z,2.83
2022-08-09T17:04:01.820Z,2.38
2022-08-09T17:06:33.330Z,2.13
2022-08-09T17:09:17.576Z,2.85
2022-08-09T17:11:53.993Z,4.28
2022-08-09T17:14:28.148Z,2.35
2022-08-09T17:16:56.623Z,3.22
2022-08-09T17:19:46.307Z,1.58
2022-08-09T17:22:15.284Z,1.10
2022-08-09T17:24:47.789Z,3.45
2022-08-09T17:27:24.061Z,1.77
2022-08-09T17:29:51.556Z,3.30
2022-08-09T17:32:20.364Z,1.38
2022-08-09T17:35:04.401Z,1.10
2022-08-09T17:38:11.896Z,0.73
2022-08-09T17:40:25.936Z,2.30
2022-08-09T17:42:59.477Z,1.15
2022-08-09T17:46:01.866Z,0.98
2022-08-09T17:48:18.224Z,2.58
2022-08-09T17:50:56.653Z,1.95
2022-08-09T17:53:34.069Z,3.42
2022-08-09T17:56:10.838Z,2.47
2022-08-09T17:58:42.761Z,0.82
2022-08-09T18:01:11.248Z,1.25
2022-08-09T18:03:50.359Z,1.15
2022-08-09T18:06:31.101Z,3.38
2022-08-09T18:09:00.147Z,1.27
2022-08-09T18:11:27.695Z,2.35
2022-08-09T18:14:08.036Z,3.20
2022-08-09T18:16:49.179Z,1.75
2022-08-09T18:20:54.253Z,0.73
2022-08-09T18:22:16.843Z,2.45
2022-08-09T18:24:45.665Z,1.10
2022-08-09T18:27:14.182Z,0.80
2022-08-09T18:30:41.837Z,1.75
2022-08-09T18:32:53.932Z,3.40
2022-08-09T18:38:09.475Z,0.70
2022-08-09T18:40:44.926Z,3.50
2022-08-09T18:43:12.651Z,2.88
2022-08-09T18:46:47.836Z,1.48
2022-08-09T18:48:30.100Z,1.20
2022-08-09T18:50:59.965Z,1.67
2022-08-09T18:53:31.492Z,0.83
2022-08-09T18:56:17.160Z,1.90
2022-08-09T18:58:47.604Z,1.33
2022-08-09T19:01:27.030Z,1.98
2022-08-09T19:04:06.017Z,4.35
2022-08-09T19:06:38.423Z,1.77
2022-08-09T19:11:37.813Z,1.27
2022-08-09T19:14:06.246Z,2.72
2022-08-09T19:16:37.747Z,1.33
2022-08-09T19:19:21.493Z,2.00
2022-08-09T19:22:04.217Z,1.17
2022-08-09T19:24:38.310Z,1.20
2022-08-09T19:27:19.160Z,2.50
2022-08-09T19:30:22.173Z,2.75
2022-08-09T19:32:37.577Z,1.58
2022-08-09T19:35:05.545Z,2.08
2022-08-09T19:37:54.014Z,2.10
2022-08-09T19:40:21.899Z,3.45
2022-08-09T19:42:49.947Z,2.78
2022-08-09T19:45:22.760Z,2.38
2022-08-09T19:47:52.343Z,1.42
2022-08-09T19:50:51.351Z,1.15
2022-08-09T19:53:09.096Z,3.95
2022-08-09T19:55:53.119Z,1.80
2022-08-09T19:58:29.690Z,2.75
2022-08-09T20:00:57.789Z,1.02
2022-08-09T20:04:11.318Z,2.28
2022-08-09T20:06:23.428Z,1.55
2022-08-09T20:08:55.369Z,1.17
2022-08-09T20:11:26.261Z,1.33
2022-08-09T20:13:54.704Z,2.88
2022-08-09T20:16:36.456Z,2.58
2022-08-09T20:19:49.516Z,2.17
2022-08-09T20:22:00.641Z,2.53
2022-08-09T20:24:32.094Z,1.70
2022-08-09T20:27:01.995Z,3.20
2022-08-09T20:29:36.981Z,2.55
2022-08-09T20:32:30.750Z,2.08
2022-08-09T20:34:54.845Z,0.80
2022-08-09T20:37:22.706Z,1.88
2022-08-09T20:40:16.080Z,1.85
2022-08-09T20:42:38.240Z,2.42
2022-08-09T20:45:56.765Z,1.27
2022-08-09T20:47:55.046Z,2.40
2022-08-09T20:50:47.240Z,0.73
2022-08-09T20:53:22.730Z,3.55
2022-08-09T20:56:02.072Z,0.95
2022-08-09T20:58:33.882Z,1.60
2022-08-09T21:05:49.101Z,1.25
2022-08-09T21:06:32.633Z,1.35
2022-08-09T21:09:02.785Z,1.58
2022-08-09T21:14:18.827Z,3.65
2022-08-09T21:16:46.430Z,1.70
2022-08-09T21:20:19.397Z,1.23
2022-08-09T21:22:36.138Z,2.20
2022-08-09T21:25:13.346Z,0.95
2022-08-09T21:27:52.043Z,1.25
2022-08-09T21:30:22.447Z,1.02
2022-08-09T21:32:50.345Z,1.35
2022-08-09T21:35:17.894Z,1.85
2022-08-09T21:37:58.824Z,1.27
2022-08-09T21:40:30.991Z,2.20
2022-08-09T21:43:01.439Z,3.85
2022-08-09T21:45:30.565Z,1.00
2022-08-09T21:47:58.195Z,1.00
2022-08-09T21:50:36.215Z,1.83
2022-08-09T21:53:19.817Z,0.90
2022-08-09T21:55:57.150Z,3.75
2022-08-09T21:58:30.948Z,1.13
2022-08-09T22:00:59.096Z,1.10
2022-08-09T22:03:26.633Z,0.90
2022-08-09T22:05:54.828Z,2.42
2022-08-09T22:08:25.515Z,1.40
2022-08-09T22:11:05.176Z,1.20
2022-08-09T22:13:43.260Z,1.80
2022-08-09T22:16:11.724Z,4.28
2022-08-09T22:18:52.923Z,1.63
2022-08-09T22:21:24.348Z,1.08
2022-08-09T22:23:59.025Z,2.67
2022-08-09T22:26:35.262Z,2.15
2022-08-09T22:29:07.375Z,2.22
2022-08-09T22:34:14.422Z,2.67
2022-08-09T22:36:45.600Z,2.38
2022-08-09T22:39:47.275Z,1.35
2022-08-09T22:42:03.982Z,1.80
2022-08-09T22:44:45.659Z,1.95
2022-08-09T22:48:14.552Z,1.60
2022-08-09T22:50:00.779Z,4.28
2022-08-09T22:52:28.335Z,2.92
2022-08-09T22:54:58.475Z,1.70
2022-08-09T22:57:35.557Z,2.40
2022-08-09T23:00:04.496Z,2.05
2022-08-09T23:02:33.725Z,1.60
2022-08-09T23:05:01.771Z,3.58
2022-08-09T23:08:27.662Z,3.20
2022-08-09T23:10:43.641Z,1.65
2022-08-09T23:13:12.899Z,1.73
2022-08-09T23:15:41.342Z,1.58
2022-08-09T23:18:08.782Z,2.90
2022-08-09T23:20:36.333Z,1.13
2022-08-09T23:23:03.805Z,1.50
2022-08-09T23:25:31.235Z,1.67
2022-08-09T23:28:15.378Z,1.23
2022-08-09T23:30:50.886Z,1.30
2022-08-09T23:33:19.149Z,2.25
2022-08-09T23:36:07.136Z,2.08
2022-08-09T23:38:34.081Z,2.15
2022-08-09T23:41:02.437Z,3.55
2022-08-09T23:43:31.249Z,1.67
2022-08-09T23:45:58.825Z,2.35
2022-08-09T23:48:26.280Z,2.08
2022-08-09T23:50:53.801Z,3.50
2022-08-09T23:53:21.227Z,3.58
2022-08-09T23:55:54.276Z,2.50
2022-08-09T23:58:25.881Z,3.38
